Time;durP1;ratioP1;P1;durP2;ratioP2;P2;SDS_P1;SDS_P2;PMS_P1;PMS_P2;Temp;Humidity;BMP_temperature;BMP_pressure;BME280_temperature;BME280_humidity;BME280_pressure;Samples;Min_cycle;Max_cycle;Signal;HPM_P1;HPM_P2
2023/07/01 00:01:00;;;;;;;4.93;1.00;;;18.60;93.70;;;;;;5073264;28;20028;-71
2023/07/01 00:03:30;;;;;;;4.25;0.90;;;18.60;93.50;;;;;;5073785;28;20410;-71
2023/07/01 00:05:57;;;;;;;3.78;0.80;;;18.60;93.60;;;;;;5073245;28;20037;-71
2023/07/01 00:08:22;;;;;;;3.47;0.70;;;18.60;93.50;;;;;;5073726;28;20029;-70
2023/07/01 00:10:48;;;;;;;3.60;0.60;;;18.60;93.50;;;;;;5072148;28;20062;-71
2023/07/01 00:13:13;;;;;;;6.07;0.70;;;18.60;93.50;;;;;;5073312;28;20424;-71
2023/07/01 00:15:39;;;;;;;2.95;0.70;;;18.60;93.40;;;;;;5073398;28;20494;-70
2023/07/01 00:18:05;;;;;;;2.53;0.80;;;18.60;93.30;;;;;;5073040;28;20035;-71
2023/07/01 00:20:31;;;;;;;5.20;0.70;;;18.60;93.30;;;;;;5073081;28;20105;-71
2023/07/01 00:22:57;;;;;;;5.28;1.75;;;18.60;93.30;;;;;;5072969;28;20394;-71
2023/07/01 00:25:23;;;;;;;3.25;0.70;;;18.60;93.30;;;;;;5072929;28;20059;-71
2023/07/01 00:27:49;;;;;;;4.28;0.75;;;18.60;93.30;;;;;;5072939;28;20043;-71
2023/07/01 00:30:14;;;;;;;4.53;0.88;;;18.60;93.30;;;;;;5073163;28;20108;-71
2023/07/01 00:32:40;;;;;;;6.15;1.15;;;18.50;93.30;;;;;;5069427;28;20066;-70
2023/07/01 00:35:06;;;;;;;5.18;0.90;;;18.60;93.30;;;;;;5062875;28;20025;-70
2023/07/01 00:37:31;;;;;;;3.88;0.60;;;18.60;93.20;;;;;;5073006;28;20017;-70
2023/07/01 00:39:57;;;;;;;4.90;0.80;;;18.60;93.00;;;;;;5072760;28;20107;-70
2023/07/01 00:42:22;;;;;;;4.57;0.57;;;18.60;93.00;;;;;;5072684;28;20138;-70
2023/07/01 00:44:48;;;;;;;4.38;0.88;;;18.60;92.90;;;;;;5071727;28;20119;-70
2023/07/01 00:47:14;;;;;;;2.85;0.60;;;18.50;92.80;;;;;;5072797;28;20469;-70
2023/07/01 00:49:40;;;;;;;4.15;0.57;;;18.50;92.80;;;;;;5072495;28;20021;-70
2023/07/01 00:52:06;;;;;;;3.60;0.90;;;18.60;92.70;;;;;;5072202;28;20025;-70
2023/07/01 00:54:34;;;;;;;4.28;0.70;;;18.60;92.70;;;;;;5072496;28;20051;-70
2023/07/01 00:57:03;;;;;;;5.45;0.80;;;18.60;92.60;;;;;;5072253;28;20092;-70
2023/07/01 00:59:32;;;;;;;5.82;0.82;;;18.60;92.60;;;;;;5072792;28;20044;-70
2023/07/01 01:02:10;;;;;;;2.20;0.60;;;18.50;92.50;;;;;;5072661;28;20056;-71
2023/07/01 01:04:45;;;;;;;2.05;0.60;;;18.60;92.50;;;;;;5071095;28;20444;-70
2023/07/01 01:07:24;;;;;;;3.22;0.60;;;18.50;92.50;;;;;;5069539;28;20041;-70
2023/07/01 01:09:55;;;;;;;7.32;1.48;;;18.50;92.60;;;;;;5070570;28;20020;-70
2023/07/01 01:12:23;;;;;;;3.50;0.70;;;18.50;92.50;;;;;;5072447;28;20032;-70
2023/07/01 01:14:51;;;;;;;4.55;0.73;;;18.50;92.50;;;;;;5071598;28;20024;-70
2023/07/01 01:17:19;;;;;;;3.33;0.60;;;18.50;92.50;;;;;;5071008;28;20031;-70
2023/07/01 01:19:54;;;;;;;3.53;0.57;;;18.50;92.60;;;;;;5072235;28;20021;-70
2023/07/01 01:22:33;;;;;;;4.85;0.63;;;18.50;92.50;;;;;;5072061;28;20052;-70
2023/07/01 01:25:05;;;;;;;7.18;0.70;;;18.60;92.60;;;;;;5071451;28;20127;-70
2023/07/01 01:27:37;;;;;;;;;;;18.60;92.60;;;;;;5067283;28;20112;-70
2023/07/01 01:30:06;;;;;;;4.22;0.70;;;18.50;92.60;;;;;;5075835;28;19931;-70
2023/07/01 01:32:33;;;;;;;3.28;0.70;;;18.50;92.60;;;;;;5083796;28;20116;-69
2023/07/01 01:34:59;;;;;;;3.40;0.60;;;18.60;92.60;;;;;;5075058;28;20103;-70
2023/07/01 01:37:43;;;;;;;1.80;0.70;;;18.60;92.70;;;;;;5071609;28;20108;-70
2023/07/01 01:40:25;;;;;;;2.35;0.57;;;18.60;92.90;;;;;;5069986;28;20029;-70
2023/07/01 01:42:55;;;;;;;;;;;18.60;93.00;;;;;;5072545;28;20028;-70
2023/07/01 01:45:21;;;;;;;6.22;1.38;;;18.50;93.10;;;;;;5071536;28;19908;-70
2023/07/01 01:47:49;;;;;;;4.18;0.80;;;18.50;93.50;;;;;;5071738;28;20035;-70
2023/07/01 01:50:18;;;;;;;4.75;0.57;;;18.50;93.90;;;;;;5071686;28;20028;-70
2023/07/01 01:52:44;;;;;;;4.07;0.70;;;18.60;94.20;;;;;;5072044;28;20017;-70
2023/07/01 01:55:11;;;;;;;3.97;0.90;;;18.60;94.40;;;;;;5076822;28;20076;-70
2023/07/01 01:57:37;;;;;;;4.55;0.68;;;18.50;94.60;;;;;;5074585;28;20386;-70
2023/07/01 02:00:08;;;;;;;3.83;0.80;;;18.50;94.70;;;;;;5071649;28;20332;-70
2023/07/01 02:02:35;;;;;;;5.60;0.93;;;18.50;94.90;;;;;;5071708;28;20016;-70
2023/07/01 02:05:00;;;;;;;4.82;0.70;;;18.50;95.00;;;;;;5071214;28;20020;-70
2023/07/01 02:07:26;;;;;;;6.25;0.90;;;18.40;95.20;;;;;;5071792;28;20078;-70
2023/07/01 02:09:52;;;;;;;3.08;0.73;;;18.40;95.30;;;;;;5071458;28;20021;-71
2023/07/01 02:12:18;;;;;;;4.47;0.88;;;18.40;95.50;;;;;;5071226;28;20032;-70
2023/07/01 02:14:43;;;;;;;3.22;0.75;;;18.40;95.60;;;;;;5071040;28;20095;-70
2023/07/01 02:17:09;;;;;;;4.53;1.27;;;18.40;95.80;;;;;;5071380;28;20390;-70
2023/07/01 02:19:34;;;;;;;3.92;0.80;;;18.40;96.20;;;;;;5069499;28;20029;-70
2023/07/01 02:22:00;;;;;;;3.35;0.93;;;18.30;96.40;;;;;;5072989;28;20036;-70
2023/07/01 02:24:25;;;;;;;7.30;0.90;;;18.30;96.90;;;;;;5070741;28;20017;-70
2023/07/01 02:26:51;;;;;;;4.55;0.90;;;18.20;97.30;;;;;;5070153;28;20079;-70
2023/07/01 02:29:16;;;;;;;5.22;1.20;;;18.20;97.50;;;;;;5071017;28;20032;-71
2023/07/01 02:31:42;;;;;;;5.43;0.70;;;18.10;97.60;;;;;;5059255;28;20380;-70
2023/07/01 02:34:07;;;;;;;3.50;0.82;;;18.10;97.70;;;;;;5057934;28;20040;-70
2023/07/01 02:36:33;;;;;;;3.35;0.90;;;18.10;98.00;;;;;;5070815;28;20077;-70
2023/07/01 02:38:59;;;;;;;4.18;0.90;;;18.10;98.20;;;;;;5070659;28;20035;-71
2023/07/01 02:41:24;;;;;;;5.82;0.80;;;18.10;98.30;;;;;;5070808;28;20035;-70
2023/07/01 02:43:50;;;;;;;4.40;1.00;;;18.10;98.50;;;;;;5070647;28;20488;-70
2023/07/01 02:46:15;;;;;;;4.18;1.00;;;18.10;99.40;;;;;;5071181;28;20032;-70
2023/07/01 02:48:41;;;;;;;4.57;0.93;;;18.00;99.90;;;;;;5069713;28;20040;-70
2023/07/01 02:51:07;;;;;;;5.70;0.90;;;18.00;99.90;;;;;;5070484;28;20095;-71
2023/07/01 02:53:33;;;;;;;2.72;0.60;;;17.90;99.90;;;;;;5070915;28;20390;-71
2023/07/01 02:55:58;;;;;;;4.10;0.80;;;17.80;99.90;;;;;;5070266;28;20027;-70
2023/07/01 02:58:24;;;;;;;3.33;0.80;;;17.80;99.90;;;;;;5070817;28;20086;-70
2023/07/01 03:00:50;;;;;;;2.47;0.70;;;17.80;99.90;;;;;;5070479;28;20500;-70
2023/07/01 03:03:16;;;;;;;8.00;0.95;;;17.70;99.90;;;;;;5070719;28;20371;-70
2023/07/01 03:05:42;;;;;;;3.40;1.00;;;17.70;99.90;;;;;;5070181;28;20029;-70
2023/07/01 03:08:08;;;;;;;4.22;0.80;;;17.60;99.90;;;;;;5070268;28;20269;-70
2023/07/01 03:10:34;;;;;;;3.85;0.90;;;17.60;99.90;;;;;;5070393;28;20021;-70
2023/07/01 03:12:59;;;;;;;3.25;0.80;;;17.60;99.90;;;;;;5070136;28;20024;-70
2023/07/01 03:15:25;;;;;;;4.53;0.90;;;17.50;99.90;;;;;;5069414;28;20024;-70
2023/07/01 03:17:51;;;;;;;2.63;0.80;;;17.50;99.90;;;;;;5070355;28;20103;-71
2023/07/01 03:20:22;;;;;;;4.15;0.82;;;17.40;99.90;;;;;;5068980;28;20478;-70
2023/07/01 03:22:53;;;;;;;3.38;0.77;;;17.40;99.90;;;;;;5070797;28;20126;-70
2023/07/01 03:25:19;;;;;;;2.63;0.75;;;17.40;99.90;;;;;;5069951;28;20052;-70
2023/07/01 03:27:46;;;;;;;3.22;0.73;;;17.40;99.90;;;;;;5070344;28;20035;-70
2023/07/01 03:30:13;;;;;;;3.85;0.85;;;17.40;99.90;;;;;;5055397;28;20025;-70
2023/07/01 03:32:43;;;;;;;6.82;0.95;;;17.40;99.90;;;;;;5056153;28;20482;-70
2023/07/01 03:35:09;;;;;;;3.85;0.90;;;17.40;99.90;;;;;;5073423;28;20020;-70
2023/07/01 03:37:36;;;;;;;1.92;0.60;;;17.40;99.90;;;;;;5074112;28;20112;-70
2023/07/01 03:40:03;;;;;;;3.58;0.85;;;17.40;99.90;;;;;;5074024;28;20028;-70
2023/07/01 03:42:28;;;;;;;3.85;0.90;;;17.40;99.90;;;;;;5072735;28;20534;-70
2023/07/01 03:44:54;;;;;;;2.95;0.85;;;17.40;99.90;;;;;;5073581;28;20071;-70
2023/07/01 03:47:20;;;;;;;7.10;1.02;;;17.40;99.90;;;;;;5073628;28;20029;-70
2023/07/01 03:49:45;;;;;;;4.60;0.82;;;17.40;99.90;;;;;;5074038;28;20063;-70
2023/07/01 03:52:11;;;;;;;1.40;0.70;;;17.40;99.90;;;;;;5073360;28;20017;-70
2023/07/01 03:54:36;;;;;;;3.38;0.80;;;17.40;99.90;;;;;;5073844;28;20032;-70
2023/07/01 03:57:02;;;;;;;3.85;0.70;;;17.40;99.90;;;;;;5071967;28;20425;-70
2023/07/01 03:59:27;;;;;;;4.10;0.85;;;17.40;99.90;;;;;;5073700;28;20070;-70
2023/07/01 04:01:53;;;;;;;3.38;0.80;;;17.30;99.90;;;;;;5073004;28;20025;-70
2023/07/01 04:04:19;;;;;;;3.58;0.90;;;17.40;99.90;;;;;;5073593;28;20082;-70
2023/07/01 04:06:44;;;;;;;6.10;0.85;;;17.30;99.90;;;;;;5073713;28;20697;-70
2023/07/01 04:09:12;;;;;;;2.92;0.85;;;17.30;99.90;;;;;;5073030;28;20517;-70
2023/07/01 04:11:42;;;;;;;2.30;0.82;;;17.30;99.90;;;;;;5073316;28;20112;-70
2023/07/01 04:14:08;;;;;;;3.55;1.23;;;17.30;99.90;;;;;;5072892;28;20473;-70
2023/07/01 04:16:34;;;;;;;4.15;1.33;;;17.20;99.90;;;;;;5073096;28;20028;-70
2023/07/01 04:18:59;;;;;;;3.67;0.90;;;17.10;99.90;;;;;;5072840;28;20449;-70
2023/07/01 04:21:25;;;;;;;2.53;0.75;;;17.10;99.90;;;;;;5073054;28;20394;-70
2023/07/01 04:23:51;;;;;;;3.47;1.00;;;17.10;99.90;;;;;;5071818;28;20073;-70
2023/07/01 04:26:17;;;;;;;2.15;0.75;;;17.10;99.90;;;;;;5072798;28;20048;-70
2023/07/01 04:28:42;;;;;;;2.83;0.90;;;17.00;99.90;;;;;;5059313;28;20043;-70
2023/07/01 04:31:07;;;;;;;4.88;1.15;;;17.00;99.90;;;;;;5052391;28;20367;-70
2023/07/01 04:33:33;;;;;;;2.00;0.80;;;17.00;99.90;;;;;;5068430;28;20070;-70
2023/07/01 04:35:59;;;;;;;2.15;1.10;;;17.00;99.90;;;;;;5068614;28;20032;-70
2023/07/01 04:38:24;;;;;;;1.92;0.70;;;16.90;99.90;;;;;;5073174;28;20024;-70
2023/07/01 04:40:50;;;;;;;2.40;0.93;;;16.90;99.90;;;;;;5072650;28;20028;-71
2023/07/01 04:43:16;;;;;;;3.90;1.20;;;16.90;99.90;;;;;;5072578;28;20024;-70
2023/07/01 04:45:42;;;;;;;2.60;0.90;;;16.90;99.90;;;;;;5072642;28;20082;-70
2023/07/01 04:48:09;;;;;;;3.58;0.80;;;16.80;99.90;;;;;;5070877;28;20181;-70
2023/07/01 04:50:34;;;;;;;2.00;0.85;;;16.80;99.90;;;;;;5072684;28;20065;-70
2023/07/01 04:53:00;;;;;;;1.92;1.00;;;16.90;99.90;;;;;;5072038;28;20024;-70
2023/07/01 04:55:26;;;;;;;3.60;0.93;;;16.80;99.90;;;;;;5072542;28;20024;-70
2023/07/01 04:57:51;;;;;;;5.82;1.20;;;16.80;99.90;;;;;;5072069;28;20025;-70
2023/07/01 05:00:17;;;;;;;2.75;1.23;;;16.80;99.90;;;;;;5072494;28;20483;-70
2023/07/01 05:02:43;;;;;;;2.60;0.93;;;16.80;99.90;;;;;;5072179;28;20467;-70
2023/07/01 05:05:09;;;;;;;3.22;0.75;;;16.80;99.90;;;;;;5071889;28;20086;-70
2023/07/01 05:07:35;;;;;;;2.03;0.70;;;16.70;99.90;;;;;;5072180;28;20074;-70
2023/07/01 05:10:01;;;;;;;1.48;0.70;;;16.80;99.90;;;;;;5072042;28;20020;-70
2023/07/01 05:12:27;;;;;;;2.05;0.82;;;16.70;99.90;;;;;;5071137;28;20478;-70
2023/07/01 05:14:53;;;;;;;1.67;0.80;;;16.80;99.90;;;;;;5071803;28;20031;-70
2023/07/01 05:17:19;;;;;;;2.38;0.77;;;16.70;99.90;;;;;;5072498;28;20035;-70
2023/07/01 05:19:45;;;;;;;3.20;0.90;;;16.70;99.90;;;;;;5071897;28;20033;-70
2023/07/01 05:22:10;;;;;;;2.33;0.90;;;16.70;99.90;;;;;;5071643;28;20017;-70
2023/07/01 05:24:36;;;;;;;2.72;1.05;;;16.70;99.90;;;;;;5071954;28;20079;-70
2023/07/01 05:27:01;;;;;;;3.13;0.90;;;16.70;99.90;;;;;;5060269;28;20044;-70
2023/07/01 05:29:28;;;;;;;3.05;1.30;;;16.70;99.90;;;;;;5052201;28;20029;-70
2023/07/01 05:31:55;;;;;;;1.73;0.93;;;16.70;99.90;;;;;;5066082;28;20017;-70
2023/07/01 05:34:22;;;;;;;1.83;1.00;;;16.70;99.90;;;;;;5072198;28;20044;-70
2023/07/01 05:36:48;;;;;;;2.50;0.90;;;16.60;99.90;;;;;;5071523;28;20482;-70
2023/07/01 05:39:13;;;;;;;2.00;0.93;;;16.70;99.90;;;;;;5071779;28;20035;-70
2023/07/01 05:41:40;;;;;;;3.08;1.40;;;16.70;99.90;;;;;;5071732;28;20024;-70
2023/07/01 05:44:05;;;;;;;3.33;1.17;;;16.70;99.90;;;;;;5071004;28;20020;-70
2023/07/01 05:46:31;;;;;;;2.17;1.20;;;16.70;99.90;;;;;;5071462;28;20039;-70
2023/07/01 05:48:56;;;;;;;2.17;1.00;;;16.70;99.90;;;;;;5070402;28;20119;-70
2023/07/01 05:51:22;;;;;;;3.15;1.02;;;16.70;99.90;;;;;;5071703;28;20028;-70
2023/07/01 05:53:48;;;;;;;2.97;1.00;;;16.70;99.90;;;;;;5069510;28;20398;-70
2023/07/01 05:56:15;;;;;;;4.13;0.95;;;16.70;99.90;;;;;;5071699;28;20052;-70
2023/07/01 05:58:40;;;;;;;2.92;1.20;;;16.70;99.90;;;;;;5071345;28;20033;-70
2023/07/01 06:01:06;;;;;;;4.00;1.00;;;16.70;99.90;;;;;;5070669;28;20059;-70
2023/07/01 06:03:32;;;;;;;2.53;0.90;;;16.80;99.90;;;;;;5069644;28;20021;-70
2023/07/01 06:05:58;;;;;;;1.65;1.00;;;16.80;99.90;;;;;;5070575;28;20080;-70
2023/07/01 06:08:23;;;;;;;3.05;1.08;;;16.90;99.90;;;;;;5070529;28;20141;-70
2023/07/01 06:10:52;;;;;;;2.92;0.98;;;16.90;99.90;;;;;;5070340;28;20024;-71
2023/07/01 06:13:18;;;;;;;1.90;1.10;;;16.90;99.90;;;;;;5070330;28;20058;-70
2023/07/01 06:15:44;;;;;;;2.47;0.88;;;17.00;99.90;;;;;;5070754;28;20028;-70
2023/07/01 06:18:10;;;;;;;3.33;0.80;;;17.00;99.90;;;;;;5069316;28;20078;-70
2023/07/01 06:20:35;;;;;;;2.42;1.00;;;17.10;99.90;;;;;;5071248;28;20031;-70
2023/07/01 06:23:01;;;;;;;1.92;0.75;;;17.10;99.90;;;;;;5071041;28;20066;-70
2023/07/01 06:25:26;;;;;;;4.10;0.90;;;17.20;99.90;;;;;;5069118;28;20402;-70
2023/07/01 06:27:52;;;;;;;1.60;0.73;;;17.20;99.90;;;;;;5070530;28;20029;-71
2023/07/01 06:30:17;;;;;;;2.08;0.70;;;17.30;99.90;;;;;;5070973;28;20029;-70
2023/07/01 06:32:43;;;;;;;2.63;0.80;;;17.30;99.90;;;;;;5070824;28;20047;-70
2023/07/01 06:35:08;;;;;;;2.25;0.60;;;17.40;99.90;;;;;;5070534;28;20021;-70
2023/07/01 06:37:34;;;;;;;3.63;0.70;;;17.40;99.90;;;;;;5070874;28;20158;-70
2023/07/01 06:39:59;;;;;;;3.85;0.70;;;17.40;99.90;;;;;;5070648;28;20091;-70
2023/07/01 06:42:26;;;;;;;2.15;0.70;;;17.50;99.90;;;;;;5071374;28;20024;-70
2023/07/01 06:44:51;;;;;;;2.13;0.80;;;17.50;99.90;;;;;;5070559;28;20024;-70
2023/07/01 06:47:17;;;;;;;2.95;0.55;;;17.50;99.90;;;;;;5071040;28;20268;-70
2023/07/01 06:49:45;;;;;;;1.27;0.60;;;17.60;99.90;;;;;;5071399;28;20078;-70
2023/07/01 06:52:11;;;;;;;1.83;0.70;;;17.60;99.90;;;;;;5070477;28;20039;-70
2023/07/01 06:54:36;;;;;;;1.95;0.63;;;17.60;99.90;;;;;;5070657;28;20020;-70
2023/07/01 06:57:02;;;;;;;2.95;0.60;;;17.60;99.90;;;;;;5070484;28;20398;-70
2023/07/01 06:59:27;;;;;;;1.30;0.60;;;17.70;99.90;;;;;;5070408;28;20025;-70
2023/07/01 07:01:53;;;;;;;1.38;0.60;;;17.70;99.90;;;;;;5070191;28;20028;-70
2023/07/01 07:04:18;;;;;;;0.90;0.50;;;17.70;99.90;;;;;;5071368;28;20063;-70
2023/07/01 07:06:44;;;;;;;1.95;0.68;;;17.70;99.90;;;;;;5074244;28;20047;-70
2023/07/01 07:09:09;;;;;;;2.20;0.68;;;17.80;99.90;;;;;;5074369;28;20029;-70
2023/07/01 07:11:35;;;;;;;1.30;0.60;;;17.70;99.90;;;;;;5074640;28;20405;-70
2023/07/01 07:14:00;;;;;;;1.20;0.50;;;17.80;99.90;;;;;;5074135;28;20488;-70
2023/07/01 07:16:27;;;;;;;1.73;0.70;;;17.80;99.90;;;;;;5074401;28;20103;-70
2023/07/01 07:18:53;;;;;;;9.15;1.05;;;17.80;99.90;;;;;;5074190;28;20043;-70
2023/07/01 07:21:18;;;;;;;1.13;0.50;;;17.90;99.90;;;;;;5074488;28;20021;-70
2023/07/01 07:23:44;;;;;;;1.08;0.50;;;17.80;99.90;;;;;;5072841;28;20039;-70
2023/07/01 07:26:09;;;;;;;1.83;0.80;;;17.80;99.90;;;;;;5073732;28;20137;-70
2023/07/01 07:28:38;;;;;;;1.42;0.60;;;17.80;99.90;;;;;;5074197;28;20060;-70
2023/07/01 07:31:05;;;;;;;1.55;0.70;;;17.80;99.90;;;;;;5073870;28;20017;-70
2023/07/01 07:33:31;;;;;;;1.00;0.60;;;17.70;99.90;;;;;;5074171;28;20500;-70
2023/07/01 07:35:56;;;;;;;1.85;0.70;;;17.70;99.90;;;;;;5073877;28;20028;-70
2023/07/01 07:38:22;;;;;;;1.90;1.10;;;17.70;99.90;;;;;;5074147;28;20056;-70
2023/07/01 07:40:48;;;;;;;1.60;0.80;;;17.70;99.90;;;;;;5074177;28;20025;-70
2023/07/01 07:43:13;;;;;;;2.75;0.90;;;17.70;99.90;;;;;;5074247;28;20048;-70
2023/07/01 07:45:39;;;;;;;1.95;0.70;;;17.70;99.90;;;;;;5073727;28;20032;-70
2023/07/01 07:48:05;;;;;;;2.03;1.00;;;17.60;99.90;;;;;;5073690;28;20355;-70
2023/07/01 07:50:32;;;;;;;2.10;0.90;;;17.60;99.90;;;;;;5074141;28;20033;-70
2023/07/01 07:52:57;;;;;;;2.63;0.80;;;17.60;99.90;;;;;;5073598;28;20039;-70
2023/07/01 07:55:23;;;;;;;2.58;0.77;;;17.60;99.90;;;;;;5073497;28;20029;-70
2023/07/01 07:57:49;;;;;;;2.17;0.90;;;17.60;99.90;;;;;;5072078;28;20013;-70
2023/07/01 08:00:14;;;;;;;2.20;1.27;;;17.60;99.90;;;;;;5073709;28;20036;-70
2023/07/01 08:02:44;;;;;;;1.70;1.17;;;17.60;99.90;;;;;;5073709;28;20309;-71
2023/07/01 08:05:15;;;;;;;1.77;0.95;;;17.60;99.90;;;;;;5073237;28;20085;-70
2023/07/01 08:07:41;;;;;;;3.30;1.17;;;17.60;99.90;;;;;;5072062;28;20032;-70
2023/07/01 08:10:08;;;;;;;2.30;0.98;;;17.70;99.90;;;;;;5073342;28;20031;-71
2023/07/01 08:12:33;;;;;;;1.80;0.93;;;17.70;99.90;;;;;;5052172;28;20025;-71
2023/07/01 08:14:59;;;;;;;2.03;1.30;;;17.80;99.90;;;;;;5053015;28;20032;-70
2023/07/01 08:17:28;;;;;;;2.05;1.05;;;17.80;99.90;;;;;;5053092;28;20036;-70
2023/07/01 08:19:53;;;;;;;5.35;1.52;;;17.80;99.90;;;;;;5069862;28;20020;-70
2023/07/01 08:22:23;;;;;;;1.20;1.05;;;17.90;99.90;;;;;;5068771;28;20468;-72
2023/07/01 08:24:48;;;;;;;1.40;1.10;;;17.90;99.90;;;;;;5059578;28;20469;-70
2023/07/01 08:27:14;;;;;;;1.90;1.00;;;17.90;99.90;;;;;;5073280;28;20108;-70
2023/07/01 08:29:39;;;;;;;1.80;1.23;;;17.90;99.90;;;;;;5073180;28;20021;-70
2023/07/01 08:32:05;;;;;;;2.10;0.93;;;17.90;99.90;;;;;;5072443;28;20064;-70
2023/07/01 08:34:34;;;;;;;1.38;0.88;;;18.00;99.90;;;;;;5073469;28;20048;-70
2023/07/01 08:37:00;;;;;;;2.03;1.05;;;18.00;99.90;;;;;;5072579;28;20024;-70
2023/07/01 08:39:26;;;;;;;1.90;1.05;;;18.10;99.90;;;;;;5073064;28;20419;-70
2023/07/01 08:42:02;;;;;;;3.47;1.48;;;18.10;99.90;;;;;;5072708;28;20120;-70
2023/07/01 08:44:28;;;;;;;1.90;1.00;;;18.20;99.90;;;;;;5072706;28;20386;-70
2023/07/01 08:46:57;;;;;;;1.98;1.08;;;18.20;99.90;;;;;;5072514;28;20505;-70
2023/07/01 08:49:25;;;;;;;2.00;0.98;;;18.20;99.90;;;;;;5072943;28;20455;-70
2023/07/01 08:52:03;;;;;;;1.67;1.13;;;18.20;99.90;;;;;;5072472;28;20466;-71
2023/07/01 08:54:32;;;;;;;1.65;1.10;;;18.30;99.90;;;;;;5072708;28;20037;-70
2023/07/01 08:56:59;;;;;;;1.73;0.90;;;18.40;99.90;;;;;;5072641;28;20028;-70
2023/07/01 08:59:25;;;;;;;2.17;1.05;;;18.40;99.90;;;;;;5072523;28;20078;-70
2023/07/01 09:01:51;;;;;;;1.83;1.20;;;18.50;99.90;;;;;;5072527;28;20055;-71
2023/07/01 09:04:18;;;;;;;1.80;1.10;;;18.50;99.90;;;;;;5072550;28;20398;-70
2023/07/01 09:06:44;;;;;;;1.63;1.00;;;18.50;99.90;;;;;;5072119;28;20085;-70
2023/07/01 09:09:10;;;;;;;1.98;0.82;;;18.50;99.90;;;;;;5072098;28;20100;-70
2023/07/01 09:11:35;;;;;;;2.13;1.10;;;18.50;99.90;;;;;;5072212;28;20378;-70
2023/07/01 09:14:02;;;;;;;1.85;1.25;;;18.50;99.90;;;;;;5072222;28;20039;-70
2023/07/01 09:16:36;;;;;;;1.83;1.13;;;18.60;99.90;;;;;;5072423;28;20154;-71
2023/07/01 09:19:16;;;;;;;2.60;1.20;;;18.70;99.90;;;;;;5070329;28;20424;-70
2023/07/01 09:21:43;;;;;;;1.80;1.35;;;18.70;99.90;;;;;;5061235;28;20021;-71
2023/07/01 09:24:10;;;;;;;2.33;1.45;;;18.70;99.90;;;;;;5051838;28;20566;-70
2023/07/01 09:26:36;;;;;;;1.50;1.20;;;18.70;99.90;;;;;;5065865;28;20063;-70
2023/07/01 09:29:14;;;;;;;2.75;1.65;;;18.80;99.90;;;;;;5070682;28;20100;-70
2023/07/01 09:31:45;;;;;;;1.48;1.17;;;18.80;99.90;;;;;;5072125;28;20360;-70
2023/07/01 09:34:10;;;;;;;3.03;1.40;;;18.90;99.90;;;;;;5071385;28;20448;-70
2023/07/01 09:36:36;;;;;;;2.20;1.52;;;18.90;99.90;;;;;;5071734;28;20021;-70
2023/07/01 09:39:02;;;;;;;1.58;1.30;;;18.90;99.90;;;;;;5071409;28;20054;-70
2023/07/01 09:41:30;;;;;;;1.42;0.88;;;18.90;99.90;;;;;;5071611;28;20031;-70
2023/07/01 09:43:57;;;;;;;1.70;1.20;;;18.90;99.90;;;;;;5071401;28;20029;-70
2023/07/01 09:46:23;;;;;;;1.60;1.20;;;18.90;99.90;;;;;;5071620;28;20119;-70
2023/07/01 09:48:53;;;;;;;1.70;1.38;;;18.80;99.90;;;;;;5071343;28;20078;-70
2023/07/01 09:51:20;;;;;;;1.83;1.10;;;18.90;99.90;;;;;;5071411;28;20043;-70
2023/07/01 09:53:47;;;;;;;2.78;1.05;;;18.90;99.90;;;;;;5071335;28;20017;-70
2023/07/01 09:56:15;;;;;;;2.03;0.90;;;18.90;99.90;;;;;;5071316;28;20021;-70
2023/07/01 09:58:41;;;;;;;1.70;0.80;;;18.90;99.90;;;;;;5071461;28;20024;-70
2023/07/01 10:01:07;;;;;;;2.63;1.17;;;18.80;99.90;;;;;;5071196;28;20035;-70
2023/07/01 10:03:33;;;;;;;1.15;0.80;;;18.80;99.90;;;;;;5071355;28;20029;-70
2023/07/01 10:05:58;;;;;;;1.40;1.00;;;18.80;99.90;;;;;;5070621;28;20044;-71
2023/07/01 10:08:24;;;;;;;1.80;0.80;;;18.90;99.90;;;;;;5071147;28;20116;-70
2023/07/01 10:11:06;;;;;;;1.25;0.82;;;19.00;99.90;;;;;;5070752;28;20027;-70
2023/07/01 10:13:40;;;;;;;;;;;19.10;99.90;;;;;;5070194;28;20024;-70
2023/07/01 10:16:07;;;;;;;3.88;0.90;;;19.10;99.90;;;;;;5070792;28;19904;-70
2023/07/01 10:18:33;;;;;;;3.20;1.25;;;19.10;99.90;;;;;;5070227;28;20077;-70
2023/07/01 10:21:23;;;;;;;1.63;0.80;;;19.10;99.90;;;;;;5070429;28;20107;-70
2023/07/01 10:23:52;;;;;;;2.03;1.00;;;19.20;99.90;;;;;;5070679;28;20025;-70
2023/07/01 10:26:38;;;;;;;1.60;1.13;;;19.20;99.90;;;;;;5070754;28;20096;-70
2023/07/01 10:29:26;;;;;;;1.88;1.10;;;19.20;99.90;;;;;;5070476;28;20082;-70
2023/07/01 10:32:10;;;;;;;1.77;1.25;;;19.30;99.90;;;;;;5069158;28;20116;-70
2023/07/01 10:35:15;;;;;;;2.40;1.33;;;19.40;99.90;;;;;;5071015;28;20111;-70
2023/07/01 10:37:41;;;;;;;1.73;1.10;;;19.40;99.90;;;;;;5070992;28;20470;-70
2023/07/01 10:40:31;;;;;;;2.35;1.55;;;19.40;99.90;;;;;;5070185;28;20028;-70
2023/07/01 10:43:22;;;;;;;3.67;1.20;;;19.50;99.90;;;;;;5070652;28;20111;-70
2023/07/01 10:46:10;;;;;;;5.65;1.90;;;19.60;99.90;;;;;;5070811;28;20587;-70
2023/07/01 10:48:43;;;;;;;7.70;3.25;;;19.60;99.90;;;;;;5071206;28;20048;-70
2023/07/01 10:51:13;;;;;;;3.53;1.92;;;19.60;99.90;;;;;;5070417;28;20529;-70
2023/07/01 10:54:02;;;;;;;2.58;1.80;;;19.70;99.90;;;;;;5071309;28;20404;-70
2023/07/01 10:56:31;;;;;;;2.55;1.50;;;19.90;99.90;;;;;;5069596;28;20352;-70
2023/07/01 10:59:22;;;;;;;3.33;1.83;;;20.00;99.90;;;;;;5070300;28;20021;-70
2023/07/01 11:01:56;;;;;;;3.17;1.92;;;20.20;99.90;;;;;;5070744;28;20107;-70
2023/07/01 11:04:22;;;;;;;2.97;1.98;;;20.30;99.90;;;;;;5070742;28;20029;-70
2023/07/01 11:06:55;;;;;;;2.83;1.70;;;20.50;99.90;;;;;;5070332;28;20040;-70
2023/07/01 11:09:31;;;;;;;2.90;2.17;;;20.60;99.90;;;;;;5070889;28;20031;-70
2023/07/01 11:11:57;;;;;;;4.20;2.90;;;20.70;99.90;;;;;;5070325;28;20537;-70
2023/07/01 11:14:34;;;;;;;3.55;2.35;;;20.90;99.90;;;;;;5069321;28;20112;-70
2023/07/01 11:17:11;;;;;;;3.08;2.47;;;21.00;99.90;;;;;;5070061;28;20103;-70
2023/07/01 11:19:37;;;;;;;3.83;2.17;;;21.20;99.90;;;;;;5070160;28;20047;-70
2023/07/01 11:22:04;;;;;;;3.42;2.08;;;21.20;99.90;;;;;;5070052;28;20024;-70
2023/07/01 11:24:30;;;;;;;4.72;2.38;;;21.10;99.90;;;;;;5070154;28;20025;-70
2023/07/01 11:27:05;;;;;;;3.15;2.28;;;21.00;99.90;;;;;;5068627;28;20044;-70
2023/07/01 11:29:31;;;;;;;4.57;2.22;;;21.00;99.90;;;;;;5070540;28;20084;-69
2023/07/01 11:32:21;;;;;;;2.65;2.03;;;20.80;99.90;;;;;;5068988;28;20021;-71
2023/07/01 11:34:47;;;;;;;2.38;2.10;;;20.80;99.90;;;;;;5070817;28;20435;-71
2023/07/01 11:37:24;;;;;;;4.25;1.70;;;20.90;99.90;;;;;;5069821;28;20206;-70
2023/07/01 11:39:52;;;;;;;2.55;1.63;;;20.90;99.90;;;;;;5069591;28;20031;-71
2023/07/01 11:42:29;;;;;;;2.72;2.28;;;21.00;99.90;;;;;;5070027;28;20119;-71
2023/07/01 11:44:54;;;;;;;2.35;1.95;;;21.10;99.90;;;;;;5070197;28;20039;-71
2023/07/01 11:47:20;;;;;;;2.60;1.83;;;21.10;99.90;;;;;;5070334;28;20487;-70
2023/07/01 11:49:46;;;;;;;2.53;1.75;;;21.10;99.90;;;;;;5070234;28;20024;-71
2023/07/01 11:52:29;;;;;;;2.33;1.98;;;21.10;99.90;;;;;;5071318;28;20036;-71
2023/07/01 11:54:55;;;;;;;3.85;2.25;;;21.00;99.90;;;;;;5073395;28;20024;-71
2023/07/01 11:57:21;;;;;;;2.47;2.15;;;20.80;99.90;;;;;;5073616;28;20024;-71
2023/07/01 11:59:58;;;;;;;5.07;1.95;;;20.60;99.90;;;;;;5073865;28;20099;-71
2023/07/01 12:02:31;;;;;;;2.17;1.83;;;20.40;99.90;;;;;;5102013;28;20064;-71
2023/07/01 12:04:57;;;;;;;2.22;1.85;;;20.20;99.90;;;;;;5054130;28;20071;-70
2023/07/01 12:07:23;;;;;;;3.67;2.60;;;20.30;99.90;;;;;;5073632;28;20032;-70
2023/07/01 12:09:49;;;;;;;3.40;3.10;;;20.40;99.90;;;;;;5073052;28;20117;-71
2023/07/01 12:12:32;;;;;;;3.40;3.10;;;20.60;99.90;;;;;;5073373;28;20375;-70
2023/07/01 12:15:02;;;;;;;3.20;2.83;;;20.80;99.90;;;;;;5073250;28;20367;-70
2023/07/01 12:17:30;;;;;;;3.72;3.20;;;20.90;99.90;;;;;;5064520;28;20475;-70
2023/07/01 12:19:58;;;;;;;3.53;3.13;;;21.00;99.90;;;;;;5059585;28;20028;-71
2023/07/01 12:22:25;;;;;;;4.88;3.55;;;21.00;99.90;;;;;;5072953;28;20056;-70
2023/07/01 12:24:58;;;;;;;5.43;3.95;;;21.10;99.90;;;;;;5072441;28;20048;-71
2023/07/01 12:27:24;;;;;;;5.45;4.32;;;21.10;99.90;;;;;;5072856;28;20028;-70
2023/07/01 12:29:50;;;;;;;6.47;4.22;;;20.80;99.90;;;;;;5070967;28;20100;-70
2023/07/01 12:32:16;;;;;;;5.75;4.60;;;20.70;99.90;;;;;;5072821;28;20557;-70
2023/07/01 12:34:41;;;;;;;7.78;5.05;;;20.50;99.90;;;;;;5072914;28;20021;-70
2023/07/01 12:37:07;;;;;;;7.28;5.25;;;20.40;99.90;;;;;;5072462;28;20040;-71
2023/07/01 12:39:33;;;;;;;7.68;4.60;;;20.30;99.90;;;;;;5072491;28;20032;-70
2023/07/01 12:41:59;;;;;;;4.93;4.15;;;20.10;99.90;;;;;;5072644;28;20021;-71
2023/07/01 12:44:25;;;;;;;5.38;4.80;;;20.10;99.90;;;;;;5072206;28;20100;-71
2023/07/01 12:46:50;;;;;;;5.20;4.15;;;20.10;99.90;;;;;;5072345;28;20506;-71
2023/07/01 12:49:16;;;;;;;5.93;4.57;;;20.20;99.90;;;;;;5072770;28;20461;-71
2023/07/01 12:51:43;;;;;;;7.03;4.95;;;20.30;99.90;;;;;;5072737;28;20474;-71